createdAt,value
2023-04-07T00:00:19.618Z,99.99
2023-04-07T00:01:19.587Z,99.99
2023-04-07T00:02:19.674Z,99.99
2023-04-07T00:03:19.728Z,99.99
2023-04-07T00:04:19.779Z,99.99
2023-04-07T00:05:19.545Z,99.99
2023-04-07T00:06:19.542Z,99.99
2023-04-07T00:07:19.533Z,99.99
2023-04-07T00:08:19.503Z,99.99
2023-04-07T00:09:19.570Z,99.99
2023-04-07T00:10:19.482Z,99.99
2023-04-07T00:11:19.459Z,99.99
2023-04-07T00:12:19.526Z,99.99
2023-04-07T00:13:19.432Z,99.99
2023-04-07T00:14:19.429Z,99.99
2023-04-07T00:15:19.421Z,99.99
2023-04-07T00:16:19.524Z,99.99
2023-04-07T00:17:19.394Z,99.99
2023-04-07T00:18:19.363Z,99.99
2023-04-07T00:19:19.361Z,99.99
2023-04-07T00:20:19.373Z,99.99
2023-04-07T00:21:19.332Z,99.99
2023-04-07T00:22:19.380Z,99.99
2023-04-07T00:23:19.300Z,99.99
2023-04-07T00:24:31.013Z,99.99
2023-04-07T00:25:20.277Z,99.99
2023-04-07T00:26:19.262Z,99.99
2023-04-07T00:27:19.253Z,99.99
2023-04-07T00:28:19.261Z,99.99
2023-04-07T00:29:19.255Z,99.99
2023-04-07T00:30:19.210Z,99.99
2023-04-07T00:31:19.228Z,99.99
2023-04-07T00:32:19.224Z,99.99
2023-04-07T00:33:19.261Z,99.99
2023-04-07T00:34:19.188Z,99.99
2023-04-07T00:35:19.156Z,99.99
2023-04-07T00:36:19.139Z,99.99
2023-04-07T00:37:19.135Z,99.99
2023-04-07T00:38:19.133Z,99.99
2023-04-07T00:39:19.101Z,99.99
2023-04-07T00:40:19.316Z,99.99
2023-04-07T00:41:19.143Z,99.99
2023-04-07T00:42:19.144Z,99.99
2023-04-07T00:43:19.037Z,99.99
2023-04-07T00:44:19.029Z,99.99
2023-04-07T00:45:19.011Z,99.99
2023-04-07T00:46:19.038Z,99.99
2023-04-07T00:47:19.031Z,99.99
2023-04-07T00:48:18.998Z,99.99
2023-04-07T00:49:18.971Z,99.99
2023-04-07T00:50:18.958Z,99.99
2023-04-07T00:51:18.964Z,99.99
2023-04-07T00:52:18.945Z,99.99
2023-04-07T00:53:18.916Z,99.99
2023-04-07T00:54:18.929Z,99.99
2023-04-07T00:55:18.915Z,99.99
2023-04-07T00:56:18.885Z,99.99
2023-04-07T00:57:18.880Z,99.99
2023-04-07T00:58:18.845Z,99.99
2023-04-07T00:59:18.851Z,99.99
2023-04-07T01:00:18.836Z,99.99
2023-04-07T01:01:18.809Z,99.99
2023-04-07T01:02:18.875Z,99.99
2023-04-07T01:03:18.983Z,99.99
2023-04-07T01:04:18.866Z,99.99
2023-04-07T01:05:18.768Z,99.99
2023-04-07T01:06:18.729Z,99.99
2023-04-07T01:07:18.723Z,99.99
2023-04-07T01:08:18.709Z,99.99
2023-04-07T01:09:18.691Z,99.99
2023-04-07T01:10:18.670Z,99.99
2023-04-07T01:11:18.650Z,99.99
2023-04-07T01:12:18.655Z,99.99
2023-04-07T01:13:18.640Z,99.99
2023-04-07T01:14:18.671Z,99.99
2023-04-07T01:15:18.614Z,99.99
2023-04-07T01:16:18.673Z,99.99
2023-04-07T01:17:18.603Z,99.99
2023-04-07T01:18:18.571Z,99.99
2023-04-07T01:19:18.572Z,99.99
2023-04-07T01:20:18.553Z,99.99
2023-04-07T01:21:18.531Z,99.99
2023-04-07T01:22:18.974Z,99.99
2023-04-07T01:23:18.508Z,99.99
2023-04-07T01:24:18.521Z,99.99
2023-04-07T01:25:18.481Z,99.99
2023-04-07T01:26:18.504Z,99.99
2023-04-07T01:27:18.466Z,99.99
2023-04-07T01:28:18.441Z,99.99
2023-04-07T01:29:18.432Z,99.99
2023-04-07T01:30:18.412Z,99.99
2023-04-07T01:31:18.447Z,99.99
2023-04-07T01:32:18.435Z,99.99
2023-04-07T01:33:18.371Z,99.99
2023-04-07T01:34:18.385Z,99.99
2023-04-07T01:35:18.367Z,99.99
2023-04-07T01:36:18.334Z,99.99
2023-04-07T01:37:18.366Z,99.99
2023-04-07T01:38:18.322Z,99.99
2023-04-07T01:39:18.292Z,99.99
2023-04-07T01:40:18.306Z,99.99
2023-04-07T01:41:18.269Z,99.99
2023-04-07T01:42:18.296Z,99.99
2023-04-07T01:43:18.254Z,99.99
2023-04-07T01:44:18.239Z,99.99
2023-04-07T01:45:18.223Z,99.99
2023-04-07T01:46:18.210Z,99.99
2023-04-07T01:47:18.254Z,99.99
2023-04-07T01:48:18.363Z,99.99
2023-04-07T01:49:18.171Z,99.99
2023-04-07T01:50:18.203Z,99.99
2023-04-07T01:51:18.144Z,99.99
2023-04-07T01:52:18.129Z,99.99
2023-04-07T01:53:18.128Z,99.99
2023-04-07T01:54:18.101Z,99.99
2023-04-07T01:55:18.092Z,99.99
2023-04-07T01:56:18.077Z,99.99
2023-04-07T01:57:18.058Z,99.99
2023-04-07T01:58:18.065Z,99.99
2023-04-07T01:59:18.030Z,99.99
2023-04-07T02:00:18.029Z,99.99
2023-04-07T02:01:18.069Z,99.99
2023-04-07T02:02:18.061Z,99.99
2023-04-07T02:03:18.168Z,99.99
2023-04-07T02:04:17.971Z,99.99
2023-04-07T02:05:17.953Z,99.99
2023-04-07T02:06:17.946Z,99.99
2023-04-07T02:07:17.933Z,99.99
2023-04-07T02:08:17.937Z,99.99
2023-04-07T02:09:17.946Z,99.99
2023-04-07T02:10:17.912Z,99.99
2023-04-07T02:11:17.875Z,99.99
2023-04-07T02:12:17.872Z,99.99
2023-04-07T02:13:17.863Z,99.99
2023-04-07T02:14:17.834Z,99.99
2023-04-07T02:15:17.820Z,99.99
2023-04-07T02:16:17.997Z,99.99
2023-04-07T02:17:17.807Z,99.99
2023-04-07T02:18:17.796Z,99.99
2023-04-07T02:19:17.791Z,99.99
2023-04-07T02:20:17.766Z,99.99
2023-04-07T02:21:17.750Z,99.99
2023-04-07T02:22:17.741Z,99.99
2023-04-07T02:23:17.737Z,99.99
2023-04-07T02:24:17.700Z,99.99
2023-04-07T02:25:17.698Z,99.99
2023-04-07T02:26:17.680Z,99.99
2023-04-07T02:27:17.670Z,99.99
2023-04-07T02:28:17.665Z,99.99
2023-04-07T02:29:17.633Z,99.99
2023-04-07T02:30:17.637Z,99.99
2023-04-07T02:31:17.670Z,99.99
2023-04-07T02:32:17.597Z,99.99
2023-04-07T02:33:17.600Z,99.99
2023-04-07T02:34:17.595Z,99.99
2023-04-07T02:35:17.557Z,99.99
2023-04-07T02:36:17.613Z,99.99
2023-04-07T02:37:17.542Z,99.99
2023-04-07T02:38:17.530Z,99.99
2023-04-07T02:39:17.514Z,99.99
2023-04-07T02:40:17.493Z,99.99
2023-04-07T02:41:17.483Z,99.99
2023-04-07T02:42:17.714Z,99.99
2023-04-07T02:43:17.457Z,99.99
2023-04-07T02:44:17.442Z,99.99
2023-04-07T02:45:17.428Z,99.99
2023-04-07T02:46:17.435Z,99.99
2023-04-07T02:47:17.398Z,99.99
2023-04-07T02:48:17.406Z,99.99
2023-04-07T02:49:17.363Z,99.99
2023-04-07T02:50:17.360Z,99.99
2023-04-07T02:51:17.349Z,99.99
2023-04-07T02:52:17.364Z,99.99
2023-04-07T02:53:17.813Z,99.99
2023-04-07T02:54:17.304Z,99.99
2023-04-07T02:55:17.300Z,99.99
2023-04-07T02:56:17.283Z,99.99
2023-04-07T02:57:17.283Z,99.99
2023-04-07T02:58:17.247Z,99.99
2023-04-07T02:59:17.254Z,99.99
2023-04-07T03:00:17.226Z,99.99
2023-04-07T03:01:17.235Z,99.99
2023-04-07T03:02:17.287Z,99.99
2023-04-07T03:03:17.315Z,99.99
2023-04-07T03:04:17.270Z,99.99
2023-04-07T03:05:17.156Z,99.99
2023-04-07T03:06:17.170Z,99.99
2023-04-07T03:07:17.130Z,99.99
2023-04-07T03:08:17.119Z,99.99
2023-04-07T03:09:17.103Z,99.99
2023-04-07T03:10:17.089Z,99.99
2023-04-07T03:11:17.102Z,99.99
2023-04-07T03:12:17.067Z,99.99
2023-04-07T03:13:17.163Z,99.99
2023-04-07T03:14:17.041Z,99.99
2023-04-07T03:15:18.796Z,99.99
2023-04-07T03:16:17.036Z,99.99
2023-04-07T03:17:17.005Z,99.99
2023-04-07T03:18:17.024Z,99.99
2023-04-07T03:19:16.972Z,99.99
2023-04-07T03:20:16.959Z,99.99
2023-04-07T03:21:16.954Z,99.99
2023-04-07T03:22:16.957Z,99.99
2023-04-07T03:23:16.932Z,99.99
2023-04-07T03:24:16.949Z,99.99
2023-04-07T03:25:16.900Z,99.99
2023-04-07T03:26:16.883Z,99.99
2023-04-07T03:27:16.879Z,99.99
2023-04-07T03:28:16.872Z,99.99
2023-04-07T03:29:16.855Z,99.99
2023-04-07T03:30:16.858Z,99.99
2023-04-07T03:31:16.872Z,99.99
2023-04-07T03:32:16.812Z,99.99
2023-04-07T03:33:16.802Z,99.99
2023-04-07T03:34:16.779Z,99.99
2023-04-07T03:35:16.776Z,99.99
2023-04-07T03:36:16.789Z,99.99
2023-04-07T03:37:16.739Z,99.99
2023-04-07T03:38:16.948Z,99.99
2023-04-07T03:39:16.725Z,99.99
2023-04-07T03:40:16.711Z,99.99
2023-04-07T03:41:16.686Z,99.99
2023-04-07T03:42:16.675Z,99.99
2023-04-07T03:43:16.817Z,99.99
2023-04-07T03:44:16.650Z,99.99
2023-04-07T03:45:16.661Z,99.99
2023-04-07T03:46:16.715Z,99.99
2023-04-07T03:47:16.611Z,99.99
2023-04-07T03:48:16.595Z,99.99
2023-04-07T03:49:16.616Z,99.99
2023-04-07T03:50:16.581Z,99.99
2023-04-07T03:51:16.550Z,99.99
2023-04-07T03:52:16.567Z,99.99
2023-04-07T03:53:16.548Z,99.99
2023-04-07T03:54:16.521Z,99.99
2023-04-07T03:55:16.498Z,99.99
2023-04-07T03:56:16.489Z,99.99
2023-04-07T03:57:16.499Z,99.99
2023-04-07T03:58:16.481Z,99.99
2023-04-07T03:59:16.447Z,99.99
2023-04-07T04:00:16.440Z,99.99
2023-04-07T04:01:16.429Z,99.99
2023-04-07T04:02:16.574Z,99.99
2023-04-07T04:03:16.530Z,99.99
2023-04-07T04:04:16.534Z,99.99
2023-04-07T04:05:16.406Z,99.99
2023-04-07T04:06:16.357Z,99.99
2023-04-07T04:07:16.357Z,99.99
2023-04-07T04:08:16.339Z,99.99
2023-04-07T04:09:16.323Z,99.99
2023-04-07T04:10:16.311Z,99.99
2023-04-07T04:11:16.313Z,99.99
2023-04-07T04:12:16.276Z,99.99
2023-04-07T04:13:16.285Z,99.99
2023-04-07T04:14:16.263Z,99.99
2023-04-07T04:15:16.245Z,99.99
2023-04-07T04:16:16.258Z,99.99
2023-04-07T04:17:16.210Z,99.99
2023-04-07T04:18:16.430Z,99.99
2023-04-07T04:19:16.291Z,99.99
2023-04-07T04:20:16.174Z,99.99
2023-04-07T04:21:16.157Z,99.99
2023-04-07T04:22:16.146Z,99.99
2023-04-07T04:23:16.131Z,99.99
2023-04-07T04:24:16.146Z,99.99
2023-04-07T04:25:16.125Z,99.99
2023-04-07T04:26:16.121Z,99.99
2023-04-07T04:27:16.079Z,99.99
2023-04-07T04:28:16.062Z,99.99
2023-04-07T04:29:16.072Z,99.99
2023-04-07T04:30:16.047Z,99.99
2023-04-07T04:31:16.076Z,99.99
2023-04-07T04:32:16.027Z,99.99
2023-04-07T04:33:16.003Z,99.99
2023-04-07T04:34:16.012Z,99.99
2023-04-07T04:35:15.978Z,99.99
2023-04-07T04:36:16.002Z,99.99
2023-04-07T04:37:15.960Z,99.99
2023-04-07T04:38:16.332Z,99.99
2023-04-07T04:39:15.939Z,99.99
2023-04-07T04:40:15.912Z,99.99
2023-04-07T04:41:15.902Z,99.99
2023-04-07T04:42:15.881Z,99.99
2023-04-07T04:43:15.898Z,99.99
2023-04-07T04:44:15.855Z,99.99
2023-04-07T04:45:15.846Z,99.99
2023-04-07T04:46:15.827Z,99.99
2023-04-07T04:47:16.090Z,99.99
2023-04-07T04:48:15.856Z,99.99
2023-04-07T04:49:15.848Z,99.99
2023-04-07T04:50:15.787Z,99.99
2023-04-07T04:51:15.763Z,99.99
2023-04-07T04:52:15.760Z,99.99
2023-04-07T04:53:15.781Z,99.99
2023-04-07T04:54:15.728Z,99.99
2023-04-07T04:55:15.716Z,99.99
2023-04-07T04:56:15.697Z,99.99
2023-04-07T04:57:15.739Z,99.99
2023-04-07T04:58:15.697Z,99.99
2023-04-07T04:59:15.688Z,99.99
2023-04-07T05:00:15.657Z,99.99
2023-04-07T05:01:15.701Z,99.99
2023-04-07T05:02:15.673Z,99.99
2023-04-07T05:03:15.826Z,99.99
2023-04-07T05:04:15.860Z,99.99
2023-04-07T05:05:15.714Z,99.99
2023-04-07T05:06:15.581Z,99.99
2023-04-07T05:07:15.566Z,99.99
2023-04-07T05:08:15.690Z,99.99
2023-04-07T05:09:15.542Z,99.99
2023-04-07T05:10:15.515Z,99.99
2023-04-07T05:11:15.497Z,99.99
2023-04-07T05:12:15.498Z,99.99
2023-04-07T05:13:15.479Z,99.99
2023-04-07T05:14:15.470Z,99.99
2023-04-07T05:15:15.447Z,99.99
2023-04-07T05:16:15.510Z,99.99
2023-04-07T05:17:15.448Z,99.99
2023-04-07T05:18:15.408Z,99.99
2023-04-07T05:19:15.404Z,99.99
2023-04-07T05:20:15.385Z,99.99
2023-04-07T05:21:15.367Z,99.99
2023-04-07T05:22:15.374Z,99.99
2023-04-07T05:23:15.342Z,99.99
2023-04-07T05:24:15.341Z,99.99
2023-04-07T05:25:15.346Z,99.99
2023-04-07T05:26:15.310Z,99.99
2023-04-07T05:27:15.577Z,99.99
2023-04-07T05:28:15.278Z,99.99
2023-04-07T05:29:15.279Z,99.99
2023-04-07T05:30:15.264Z,99.99
2023-04-07T05:31:15.273Z,99.99
2023-04-07T05:32:15.240Z,99.99
2023-04-07T05:33:15.230Z,99.99
2023-04-07T05:34:15.209Z,99.99
2023-04-07T05:35:15.179Z,99.99
2023-04-07T05:36:15.230Z,99.99
2023-04-07T05:37:15.165Z,99.99
2023-04-07T05:38:15.165Z,99.99
2023-04-07T05:39:15.126Z,99.99
2023-04-07T05:40:15.119Z,99.99
2023-04-07T05:41:15.113Z,99.99
2023-04-07T05:42:15.127Z,99.99
2023-04-07T05:43:15.131Z,99.99
2023-04-07T05:44:15.065Z,99.99
2023-04-07T05:45:15.065Z,99.99
2023-04-07T05:46:15.116Z,99.99
2023-04-07T05:47:15.020Z,99.99
2023-04-07T05:48:15.017Z,99.99
2023-04-07T05:49:19.988Z,99.99
2023-04-07T05:50:15.986Z,99.99
2023-04-07T05:51:14.972Z,99.99
2023-04-07T05:52:14.969Z,99.99
2023-04-07T05:53:14.967Z,99.99
2023-04-07T05:54:14.939Z,99.99
2023-04-07T05:55:15.020Z,99.99
2023-04-07T05:56:14.918Z,99.99
2023-04-07T05:57:14.932Z,99.99
2023-04-07T05:58:14.876Z,99.99
2023-04-07T05:59:14.881Z,99.99
2023-04-07T06:00:14.877Z,99.99
2023-04-07T06:01:14.839Z,99.99
2023-04-07T06:02:14.915Z,99.99
2023-04-07T06:03:14.898Z,99.99
2023-04-07T06:04:14.812Z,99.99
2023-04-07T06:05:14.860Z,99.99
2023-04-07T06:06:14.801Z,99.99
2023-04-07T06:07:14.767Z,99.99
2023-04-07T06:08:14.765Z,99.99
2023-04-07T06:09:14.745Z,99.99
2023-04-07T06:10:14.724Z,99.99
2023-04-07T06:11:14.708Z,99.99
2023-04-07T06:12:14.712Z,99.99
2023-04-07T06:13:14.684Z,99.99
2023-04-07T06:14:14.673Z,99.99
2023-04-07T06:15:14.661Z,99.99
2023-04-07T06:16:15.192Z,99.99
2023-04-07T06:17:14.627Z,99.99
2023-04-07T06:18:14.905Z,99.99
2023-04-07T06:19:14.650Z,99.99
2023-04-07T06:20:14.612Z,99.99
2023-04-07T06:21:14.600Z,99.99
2023-04-07T06:22:14.575Z,99.99
2023-04-07T06:23:14.551Z,99.99
2023-04-07T06:24:14.572Z,99.99
2023-04-07T06:25:14.535Z,99.99
2023-04-07T06:26:14.543Z,99.99
2023-04-07T06:27:14.505Z,99.99
2023-04-07T06:28:14.493Z,99.99
2023-04-07T06:29:14.477Z,99.99
2023-04-07T06:30:14.495Z,99.99
2023-04-07T06:31:14.536Z,99.99
2023-04-07T06:32:14.431Z,99.99
2023-04-07T06:33:14.422Z,99.99
2023-04-07T06:34:14.406Z,99.99
2023-04-07T06:35:14.640Z,99.99
2023-04-07T06:36:14.378Z,99.99
2023-04-07T06:37:14.397Z,99.99
2023-04-07T06:38:14.353Z,99.99
2023-04-07T06:39:14.668Z,99.99
2023-04-07T06:40:14.337Z,99.99
2023-04-07T06:41:14.340Z,99.99
2023-04-07T06:42:14.332Z,99.99
2023-04-07T06:43:14.307Z,99.99
2023-04-07T06:44:14.274Z,99.99
2023-04-07T06:45:14.269Z,99.99
2023-04-07T06:46:14.421Z,99.99
2023-04-07T06:47:14.254Z,99.99
2023-04-07T06:48:14.214Z,99.99
2023-04-07T06:49:14.226Z,99.99
2023-04-07T06:50:14.273Z,99.99
2023-04-07T06:51:14.184Z,99.99
2023-04-07T06:52:14.190Z,99.99
2023-04-07T06:53:14.149Z,99.99
2023-04-07T06:54:14.198Z,99.99
2023-04-07T06:55:14.129Z,99.99
2023-04-07T06:56:14.120Z,99.99
2023-04-07T06:57:14.101Z,99.99
2023-04-07T06:58:14.126Z,99.99
2023-04-07T06:59:14.102Z,99.99
2023-04-07T07:00:14.067Z,99.99
2023-04-07T07:01:14.110Z,99.99
2023-04-07T07:02:14.344Z,99.99
2023-04-07T07:03:14.188Z,99.99
2023-04-07T07:04:14.174Z,99.99
2023-04-07T07:05:13.997Z,99.99
2023-04-07T07:06:14.009Z,99.99
2023-04-07T07:07:14.137Z,99.99
2023-04-07T07:08:13.962Z,99.99
2023-04-07T07:09:13.952Z,99.99
2023-04-07T07:10:13.965Z,99.99
2023-04-07T07:11:14.078Z,99.99
2023-04-07T07:12:13.921Z,99.99
2023-04-07T07:13:13.928Z,99.99
2023-04-07T07:14:13.886Z,99.99
2023-04-07T07:15:13.916Z,99.99
2023-04-07T07:16:13.990Z,99.99
2023-04-07T07:17:13.842Z,99.99
2023-04-07T07:18:13.845Z,99.99
2023-04-07T07:19:13.811Z,99.99
2023-04-07T07:20:13.803Z,99.99
2023-04-07T07:21:13.797Z,99.99
2023-04-07T07:22:13.815Z,99.99
2023-04-07T07:23:13.905Z,99.99
2023-04-07T07:24:13.758Z,99.99
2023-04-07T07:25:14.043Z,99.99
2023-04-07T07:26:13.736Z,99.99
2023-04-07T07:27:13.736Z,99.99
2023-04-07T07:28:13.709Z,99.99
2023-04-07T07:29:13.946Z,99.99
2023-04-07T07:30:13.669Z,99.99
2023-04-07T07:31:13.692Z,99.99
2023-04-07T07:32:13.639Z,99.99
2023-04-07T07:33:13.658Z,99.99
2023-04-07T07:34:13.650Z,99.99
2023-04-07T07:35:13.615Z,99.99
2023-04-07T07:36:13.612Z,99.99
2023-04-07T07:37:13.574Z,99.99
2023-04-07T07:38:13.892Z,99.99
2023-04-07T07:39:13.553Z,99.99
2023-04-07T07:40:13.542Z,99.99
2023-04-07T07:41:13.522Z,99.99
2023-04-07T07:42:13.513Z,99.99
2023-04-07T07:43:13.534Z,99.99
2023-04-07T07:44:13.517Z,99.99
2023-04-07T07:45:13.472Z,99.99
2023-04-07T07:46:13.480Z,99.99
2023-04-07T07:47:13.460Z,99.99
2023-04-07T07:48:13.449Z,99.99
2023-04-07T07:49:13.442Z,99.99
2023-04-07T07:50:13.404Z,99.99
2023-04-07T07:51:13.390Z,99.99
2023-04-07T07:52:13.388Z,99.99
2023-04-07T07:53:13.373Z,99.99
2023-04-07T07:54:13.394Z,99.99
2023-04-07T07:55:13.341Z,99.99
2023-04-07T07:56:13.324Z,99.99
2023-04-07T07:57:13.316Z,99.99
2023-04-07T07:58:13.329Z,99.99
2023-04-07T07:59:13.287Z,99.99
2023-04-07T08:00:13.278Z,99.99
2023-04-07T08:01:13.256Z,99.99
2023-04-07T08:02:13.335Z,99.99
2023-04-07T08:03:13.666Z,99.99
2023-04-07T08:04:13.444Z,99.99
2023-04-07T08:05:13.270Z,99.99
2023-04-07T08:06:13.213Z,99.99
2023-04-07T08:07:13.189Z,99.99
2023-04-07T08:08:13.169Z,99.99
2023-04-07T08:09:13.174Z,99.99
2023-04-07T08:10:13.153Z,99.99
2023-04-07T08:11:13.146Z,99.99
2023-04-07T08:12:13.127Z,99.99
2023-04-07T08:13:13.144Z,99.99
2023-04-07T08:14:13.127Z,99.99
2023-04-07T08:15:13.088Z,99.99
2023-04-07T08:16:13.160Z,99.99
2023-04-07T08:17:13.059Z,99.99
2023-04-07T08:18:13.058Z,99.99
2023-04-07T08:19:13.073Z,99.99
2023-04-07T08:20:13.052Z,99.99
2023-04-07T08:21:13.004Z,99.99
2023-04-07T08:22:12.986Z,99.99
2023-04-07T08:23:13.029Z,99.99
2023-04-07T08:24:12.960Z,99.99
2023-04-07T08:25:12.970Z,99.99
2023-04-07T08:26:12.935Z,99.99
2023-04-07T08:27:12.960Z,99.99
2023-04-07T08:28:12.918Z,99.99
2023-04-07T08:29:12.923Z,99.99
2023-04-07T08:30:12.900Z,99.99
2023-04-07T08:31:12.936Z,99.99
2023-04-07T08:32:12.847Z,99.99
2023-04-07T08:33:12.845Z,99.99
2023-04-07T08:34:12.850Z,99.99
2023-04-07T08:35:12.826Z,99.99
2023-04-07T08:36:12.852Z,99.99
2023-04-07T08:37:12.786Z,99.99
2023-04-07T08:38:12.789Z,99.99
2023-04-07T08:39:12.766Z,99.99
2023-04-07T08:40:12.752Z,99.99
2023-04-07T08:41:12.778Z,99.99
2023-04-07T08:42:12.720Z,99.99
2023-04-07T08:43:12.728Z,99.99
2023-04-07T08:44:12.702Z,99.99
2023-04-07T08:45:12.691Z,99.99
2023-04-07T08:46:12.697Z,99.99
2023-04-07T08:47:12.691Z,99.99
2023-04-07T08:48:13.080Z,99.99
2023-04-07T08:49:12.624Z,99.99
2023-04-07T08:50:12.618Z,99.99
2023-04-07T08:51:12.632Z,99.99
2023-04-07T08:52:12.601Z,99.99
2023-04-07T08:53:12.607Z,99.99
2023-04-07T08:54:12.582Z,99.99
2023-04-07T08:55:12.573Z,99.99
2023-04-07T08:56:12.554Z,99.99
2023-04-07T08:57:12.533Z,99.99
2023-04-07T08:58:12.572Z,99.99
2023-04-07T08:59:12.510Z,99.99
2023-04-07T09:00:12.483Z,99.99
2023-04-07T09:01:12.519Z,99.99
2023-04-07T09:02:12.528Z,99.99
2023-04-07T09:03:12.571Z,99.99
2023-04-07T09:04:12.471Z,99.99
2023-04-07T09:05:12.417Z,99.99
2023-04-07T09:06:12.423Z,99.99
2023-04-07T09:07:12.418Z,99.99
2023-04-07T09:08:12.401Z,99.99
2023-04-07T09:09:13.462Z,99.99
2023-04-07T09:10:12.363Z,99.99
2023-04-07T09:11:12.341Z,99.99
2023-04-07T09:12:12.330Z,99.99
2023-04-07T09:13:12.315Z,99.99
2023-04-07T09:14:12.312Z,99.99
2023-04-07T09:15:12.315Z,99.99
2023-04-07T09:16:12.311Z,99.99
2023-04-07T09:17:12.266Z,99.99
2023-04-07T09:18:12.259Z,99.99
2023-04-07T09:19:12.246Z,99.99
2023-04-07T09:20:12.237Z,99.99
2023-04-07T09:21:13.394Z,99.99
2023-04-07T09:22:12.192Z,99.99
2023-04-07T09:23:12.213Z,99.99
2023-04-07T09:24:12.200Z,99.99
2023-04-07T09:25:12.160Z,99.99
2023-04-07T09:26:12.157Z,99.99
2023-04-07T09:27:14.012Z,99.99
2023-04-07T09:28:12.133Z,99.99
2023-04-07T09:29:12.108Z,99.99
2023-04-07T09:30:12.102Z,99.99
2023-04-07T09:31:12.076Z,99.99
2023-04-07T09:32:12.157Z,99.99
2023-04-07T09:33:12.060Z,99.99
2023-04-07T09:34:12.035Z,99.99
2023-04-07T09:35:12.036Z,99.99
2023-04-07T09:36:12.067Z,99.99
2023-04-07T09:37:12.212Z,99.99
2023-04-07T09:38:12.001Z,99.99
2023-04-07T09:39:11.973Z,99.99
2023-04-07T09:40:11.998Z,99.99
2023-04-07T09:41:11.977Z,99.99
2023-04-07T09:42:11.931Z,99.99
2023-04-07T09:43:11.942Z,99.99
2023-04-07T09:44:11.901Z,99.99
2023-04-07T09:45:12.123Z,99.99
2023-04-07T09:46:11.896Z,99.99
2023-04-07T09:47:11.869Z,99.99
2023-04-07T09:48:11.886Z,99.99
2023-04-07T09:49:11.859Z,99.99
2023-04-07T09:50:11.834Z,99.99
2023-04-07T09:51:11.809Z,99.99
2023-04-07T09:52:11.812Z,99.99
2023-04-07T09:53:11.817Z,99.99
2023-04-07T09:54:11.789Z,99.99
2023-04-07T09:55:11.764Z,99.99
2023-04-07T09:56:11.752Z,99.99
2023-04-07T09:57:11.729Z,99.99
2023-04-07T09:58:11.723Z,99.99
2023-04-07T09:59:11.727Z,99.99
2023-04-07T10:00:11.708Z,99.99
2023-04-07T10:01:11.718Z,99.99
2023-04-07T10:02:11.855Z,99.99
2023-04-07T10:03:11.708Z,99.99
2023-04-07T10:04:11.729Z,99.99
2023-04-07T10:05:11.633Z,99.99
2023-04-07T10:06:11.647Z,99.99
2023-04-07T10:07:11.613Z,99.99
2023-04-07T10:08:11.751Z,99.99
2023-04-07T10:09:11.574Z,99.99
2023-04-07T10:10:11.588Z,99.99
2023-04-07T10:11:11.599Z,99.99
2023-04-07T10:12:11.540Z,99.99
2023-04-07T10:13:11.554Z,99.99
2023-04-07T10:14:11.517Z,99.99
2023-04-07T10:15:11.529Z,99.99
2023-04-07T10:16:11.569Z,99.99
2023-04-07T10:17:11.489Z,99.99
2023-04-07T10:18:11.503Z,99.99
2023-04-07T10:19:11.453Z,99.99
2023-04-07T10:20:11.461Z,99.99
2023-04-07T10:21:11.432Z,99.99
2023-04-07T10:22:11.408Z,99.99
2023-04-07T10:23:11.443Z,99.99
2023-04-07T10:24:11.411Z,99.99
2023-04-07T10:25:11.409Z,99.99
2023-04-07T10:26:11.356Z,99.99
2023-04-07T10:27:11.368Z,99.99
2023-04-07T10:28:11.341Z,99.99
2023-04-07T10:29:11.353Z,99.99
2023-04-07T10:30:11.303Z,99.99
2023-04-07T10:31:11.333Z,99.99
2023-04-07T10:32:11.275Z,99.99
2023-04-07T10:33:11.291Z,99.99
2023-04-07T10:34:11.266Z,99.99
2023-04-07T10:35:11.261Z,99.99
2023-04-07T10:36:11.290Z,99.99
2023-04-07T10:37:11.420Z,99.99
2023-04-07T10:38:11.294Z,99.99
2023-04-07T10:39:11.193Z,99.99
2023-04-07T10:40:11.183Z,99.99
2023-04-07T10:41:11.169Z,99.99
2023-04-07T10:42:11.148Z,99.99
2023-04-07T10:43:11.343Z,99.99
2023-04-07T10:44:11.151Z,99.99
2023-04-07T10:45:11.107Z,99.99
2023-04-07T10:46:11.120Z,99.99
2023-04-07T10:47:11.098Z,99.99
2023-04-07T10:48:11.111Z,99.99
2023-04-07T10:49:11.063Z,99.99
2023-04-07T10:50:11.048Z,99.99
2023-04-07T10:51:11.030Z,99.99
2023-04-07T10:52:11.029Z,99.99
2023-04-07T10:53:11.022Z,99.99
2023-04-07T10:54:11.022Z,99.99
2023-04-07T10:55:10.975Z,99.99
2023-04-07T10:56:10.963Z,99.99
2023-04-07T10:57:10.968Z,99.99
2023-04-07T10:58:10.936Z,99.99
2023-04-07T10:59:10.924Z,99.99
2023-04-07T11:00:10.934Z,99.99
2023-04-07T11:01:10.938Z,99.99
2023-04-07T11:02:10.997Z,99.99
2023-04-07T11:03:11.027Z,99.99
2023-04-07T11:04:10.892Z,99.99
2023-04-07T11:05:10.865Z,99.99
2023-04-07T11:06:10.855Z,99.99
2023-04-07T11:07:10.837Z,99.99
2023-04-07T11:08:10.841Z,99.99
2023-04-07T11:09:10.791Z,99.99
2023-04-07T11:10:10.771Z,99.99
2023-04-07T11:11:10.773Z,99.99
2023-04-07T11:12:10.828Z,99.99
2023-04-07T11:13:10.760Z,99.99
2023-04-07T11:14:10.741Z,99.99
2023-04-07T11:15:10.712Z,99.99
2023-04-07T11:16:10.766Z,99.99
2023-04-07T11:17:10.697Z,99.99
2023-04-07T11:18:10.686Z,99.99
2023-04-07T11:19:10.706Z,99.99
2023-04-07T11:20:10.664Z,99.99
2023-04-07T11:21:10.643Z,99.99
2023-04-07T11:22:16.293Z,99.99
2023-04-07T11:23:11.610Z,99.99
2023-04-07T11:24:10.610Z,99.99
2023-04-07T11:25:10.586Z,99.99
2023-04-07T11:26:10.575Z,99.99
2023-04-07T11:27:10.550Z,99.99
2023-04-07T11:28:10.557Z,99.99
2023-04-07T11:29:10.531Z,99.99
2023-04-07T11:30:10.534Z,99.99
2023-04-07T11:31:10.526Z,99.99
2023-04-07T11:32:10.484Z,99.99
2023-04-07T11:33:10.501Z,99.99
2023-04-07T11:34:10.478Z,99.99
2023-04-07T11:35:10.465Z,99.99
2023-04-07T11:36:10.467Z,99.99
2023-04-07T11:37:10.421Z,99.99
2023-04-07T11:38:10.453Z,99.99
2023-04-07T11:39:10.432Z,99.99
2023-04-07T11:40:10.400Z,99.99
2023-04-07T11:41:10.367Z,99.99
2023-04-07T11:42:10.404Z,99.99
2023-04-07T11:43:10.367Z,99.99
2023-04-07T11:44:10.336Z,99.99
2023-04-07T11:45:10.323Z,99.99
2023-04-07T11:46:10.327Z,99.99
2023-04-07T11:47:10.349Z,99.99
2023-04-07T11:48:10.319Z,99.99
2023-04-07T11:49:10.269Z,99.99
2023-04-07T11:50:11.250Z,99.99
2023-04-07T11:51:10.237Z,99.99
2023-04-07T11:52:10.258Z,99.99
2023-04-07T11:53:10.413Z,99.99
2023-04-07T11:54:10.233Z,99.99
2023-04-07T11:55:10.195Z,99.99
2023-04-07T11:56:10.210Z,99.99
2023-04-07T11:57:10.202Z,99.99
2023-04-07T11:58:10.190Z,99.99
2023-04-07T11:59:10.132Z,99.99
2023-04-07T12:00:10.136Z,99.99
2023-04-07T12:01:10.131Z,99.99
2023-04-07T12:02:10.353Z,99.99
2023-04-07T12:03:10.488Z,99.99
2023-04-07T12:04:10.224Z,99.99
2023-04-07T12:05:10.157Z,99.99
2023-04-07T12:06:10.051Z,99.99
2023-04-07T12:07:10.037Z,99.99
2023-04-07T12:08:10.022Z,99.99
2023-04-07T12:09:10.029Z,99.99
2023-04-07T12:10:09.983Z,99.99
2023-04-07T12:11:09.976Z,99.95
2023-04-07T12:12:09.983Z,99.85
2023-04-07T12:13:09.957Z,99.75
2023-04-07T12:14:09.997Z,99.75
2023-04-07T12:15:09.954Z,99.75
2023-04-07T12:16:09.983Z,99.75
2023-04-07T12:17:09.939Z,99.75
2023-04-07T12:18:09.892Z,99.49
2023-04-07T12:19:09.882Z,99.28
2023-04-07T12:20:09.852Z,99.28
2023-04-07T12:21:09.898Z,99.18
2023-04-07T12:22:09.842Z,98.97
2023-04-07T12:23:10.223Z,98.87
2023-04-07T12:24:09.840Z,98.77
2023-04-07T12:25:09.792Z,98.67
2023-04-07T12:26:09.826Z,98.77
2023-04-07T12:27:09.766Z,98.92
2023-04-07T12:28:09.771Z,99.08
2023-04-07T12:29:09.773Z,99.18
2023-04-07T12:30:09.794Z,99.08
2023-04-07T12:31:09.740Z,99.02
2023-04-07T12:32:09.722Z,98.92
2023-04-07T12:33:09.720Z,98.92
2023-04-07T12:34:09.682Z,99.02
2023-04-07T12:35:09.673Z,99.12
2023-04-07T12:36:09.703Z,99.12
2023-04-07T12:37:09.636Z,99.22
2023-04-07T12:38:09.629Z,99.33
2023-04-07T12:39:09.639Z,99.43
2023-04-07T12:40:09.610Z,99.54
2023-04-07T12:41:09.596Z,99.54
2023-04-07T12:42:09.573Z,99.54
2023-04-07T12:43:09.559Z,99.63
2023-04-07T12:44:09.559Z,99.54
2023-04-07T12:45:09.825Z,99.43
2023-04-07T12:46:09.535Z,99.54
2023-04-07T12:47:09.523Z,99.63
2023-04-07T12:48:09.547Z,99.63
2023-04-07T12:49:09.491Z,99.54
2023-04-07T12:50:09.489Z,99.43
2023-04-07T12:51:09.488Z,99.43
2023-04-07T12:52:09.435Z,99.54